Time;durP1;ratioP1;P1;durP2;ratioP2;P2;SDS_P1;SDS_P2;PMS_P1;PMS_P2;Temp;Humidity;BMP_temperature;BMP_pressure;BME280_temperature;BME280_humidity;BME280_pressure;Samples;Min_cycle;Max_cycle;Signal;HPM_P1;HPM_P2
2022/09/08 00:00:13;;;;;;;5.03;3.30;;;;;;;17.74;81.37;100806.97;5028153;28;20141;-66
2022/09/08 00:02:38;;;;;;;6.38;3.42;;;;;;;17.74;82.65;100813.34;5028222;28;20398;-66
2022/09/08 00:05:06;;;;;;;8.63;3.55;;;;;;;17.77;81.85;100810.28;5027144;28;20137;-67
2022/09/08 00:07:32;;;;;;;7.10;3.53;;;;;;;17.78;83.15;100816.66;5028763;28;20107;-67
2022/09/08 00:09:59;;;;;;;6.38;3.22;;;;;;;17.77;81.33;100815.78;5027786;28;20464;-67
2022/09/08 00:12:25;;;;;;;8.05;3.40;;;;;;;17.78;82.51;100819.41;5020609;28;20068;-67
2022/09/08 00:14:51;;;;;;;5.28;2.92;;;;;;;17.75;81.83;100809.56;5020917;28;20091;-67
2022/09/08 00:17:18;;;;;;;5.32;2.83;;;;;;;17.72;82.52;100817.22;5026960;28;20167;-69
2022/09/08 00:19:44;;;;;;;11.32;3.30;;;;;;;17.74;82.92;100827.09;5023428;28;20404;-69
2022/09/08 00:22:09;;;;;;;8.43;3.38;;;;;;;17.72;82.36;100822.72;5025866;28;20075;-69
2022/09/08 00:24:35;;;;;;;10.25;3.88;;;;;;;17.69;81.95;100823.94;5027117;28;20058;-69
2022/09/08 00:27:00;;;;;;;11.32;4.13;;;;;;;17.63;83.34;100815.47;5027837;28;20409;-69
2022/09/08 00:29:26;;;;;;;7.40;4.15;;;;;;;17.58;82.95;100808.53;5026218;28;20128;-70
2022/09/08 00:31:51;;;;;;;10.55;3.88;;;;;;;17.52;83.82;100800.88;5028345;28;20477;-69
2022/09/08 00:34:16;;;;;;;9.93;3.95;;;;;;;17.50;83.86;100802.94;5026081;28;20048;-69
2022/09/08 00:36:42;;;;;;;8.95;3.58;;;;;;;17.48;83.47;100793.09;5024724;28;20086;-69
2022/09/08 00:39:08;;;;;;;12.82;3.58;;;;;;;17.49;83.78;100797.63;5026857;28;20033;-69
2022/09/08 00:41:35;;;;;;;11.27;4.22;;;;;;;17.46;83.70;100790.53;5026916;28;20037;-69
2022/09/08 00:44:35;;;;;;;6.75;3.53;;;;;;;17.47;83.14;100807.88;5026784;28;20036;-69
2022/09/08 00:47:01;;;;;;;15.15;3.80;;;;;;;17.43;83.87;100789.97;5026370;28;20394;-68
2022/09/08 00:49:28;;;;;;;7.35;3.17;;;;;;;17.38;84.48;100773.06;5023386;28;20095;-69
2022/09/08 00:51:56;;;;;;;10.10;3.63;;;;;;;17.37;84.27;100782.34;5026096;28;20026;-69
2022/09/08 00:54:22;;;;;;;15.43;3.50;;;;;;;17.32;85.37;100785.56;5024912;28;20421;-69
2022/09/08 00:56:48;;;;;;;8.25;3.70;;;;;;;17.30;85.18;100785.75;5025703;28;20102;-68
2022/09/08 00:59:18;;;;;;;8.30;3.75;;;;;;;17.21;86.70;100786.69;5027782;28;20121;-68
2022/09/08 01:01:43;;;;;;;13.02;3.47;;;;;;;17.21;85.89;100785.81;5001742;28;20044;-69
2022/09/08 01:04:09;;;;;;;6.80;3.28;;;;;;;17.25;85.92;100773.44;4969809;23;1334531;-84
2022/09/08 01:12:44;;;;;;;13.82;3.10;;;;;;;17.06;86.02;100761.56;5015917;28;20045;-84
2022/09/08 01:15:16;;;;;;;12.13;3.72;;;;;;;17.12;85.26;100762.00;5028326;28;20403;-84
2022/09/08 01:17:42;;;;;;;;;;;;;;;17.23;82.92;100767.25;5010678;28;20575;-84
2022/09/08 01:20:09;;;;;;;8.65;3.20;;;;;;;17.16;85.24;100752.41;5006453;28;19917;-84
2022/09/08 01:22:53;;;;;;;8.05;3.47;;;;;;;17.17;85.07;100760.50;4989287;28;20480;-84
2022/09/08 01:25:29;;;;;;;9.93;3.75;;;;;;;17.19;85.58;100746.59;5030228;28;20439;-84
2022/09/08 01:28:21;;;;;;;5.68;3.40;;;;;;;17.18;85.00;100742.97;5029798;28;20036;-84
2022/09/08 01:30:47;;;;;;;11.57;4.15;;;;;;;17.12;86.06;100740.00;5013080;28;20052;-84
2022/09/08 01:33:14;;;;;;;8.80;3.80;;;;;;;17.13;85.88;100731.59;5033527;28;20514;-84
2022/09/08 01:35:40;;;;;;;7.90;3.38;;;;;;;17.10;86.76;100723.66;5007871;28;20033;-84
2022/09/08 01:38:08;;;;;;;13.75;4.45;;;;;;;17.02;87.20;100712.56;5021701;28;20466;-84
2022/09/08 01:40:34;;;;;;;8.98;4.00;;;;;;;17.05;86.68;100723.25;5026385;28;20041;-84
2022/09/08 01:43:00;;;;;;;5.45;3.22;;;;;;;17.01;88.30;100739.19;5007135;28;20092;-84
2022/09/08 01:45:27;;;;;;;8.90;3.97;;;;;;;16.92;87.73;100731.00;5006700;28;20644;-84
2022/09/08 01:47:54;;;;;;;7.47;3.70;;;;;;;16.89;88.46;100731.34;5006808;28;20091;-84
2022/09/08 01:50:20;;;;;;;11.02;3.80;;;;;;;16.88;87.68;100732.34;5006024;28;20420;-85
2022/09/08 01:52:46;;;;;;;10.80;3.72;;;;;;;16.87;88.77;100723.22;5006737;28;20053;-84
2022/09/08 01:55:11;;;;;;;9.20;3.72;;;;;;;16.79;89.27;100717.69;4993821;28;20425;-84
2022/09/08 01:57:37;;;;;;;8.95;4.00;;;;;;;16.77;88.68;100714.19;4990756;28;20064;-84
2022/09/08 02:00:05;;;;;;;8.27;3.50;;;;;;;16.83;87.29;100703.47;5004129;28;20037;-85
2022/09/08 02:02:30;;;;;;;9.60;4.13;;;;;;;16.87;87.78;100703.13;4993853;28;20109;-84
2022/09/08 02:04:56;;;;;;;10.38;3.88;;;;;;;16.89;87.46;100710.22;4990276;28;20405;-84
2022/09/08 02:07:21;;;;;;;7.45;3.25;;;;;;;16.89;87.61;100693.72;4980549;28;20128;-84
2022/09/08 02:09:47;;;;;;;7.38;4.05;;;;;;;16.90;86.90;100695.47;5006661;28;20038;-84
2022/09/08 02:12:12;;;;;;;9.98;4.40;;;;;;;16.90;87.48;100700.94;5007419;28;20045;-85
2022/09/08 02:14:38;;;;;;;7.70;3.78;;;;;;;16.87;87.45;100683.91;4974058;28;20034;-85
2022/09/08 02:17:03;;;;;;;9.90;4.28;;;;;;;16.85;88.04;100680.47;4979020;28;20037;-85
2022/09/08 02:19:29;;;;;;;8.65;3.90;;;;;;;16.83;87.34;100670.50;4989845;28;20029;-85
2022/09/08 02:21:54;;;;;;;6.20;3.42;;;;;;;16.88;86.95;100664.53;5008556;28;20060;-85
2022/09/08 02:24:20;;;;;;;7.50;3.63;;;;;;;16.90;86.94;100656.97;5009652;28;20036;-85
2022/09/08 02:26:45;;;;;;;9.23;3.85;;;;;;;16.94;87.15;100660.28;5026911;28;20381;-84
2022/09/08 02:29:11;;;;;;;7.93;3.58;;;;;;;16.92;86.95;100659.56;4989642;28;20461;-84
2022/09/08 02:31:37;;;;;;;9.48;3.47;;;;;;;16.91;86.77;100655.09;4974516;28;20117;-85
2022/09/08 02:34:03;;;;;;;8.98;4.10;;;;;;;16.90;86.74;100665.22;4990582;28;20477;-84
2022/09/08 02:36:28;;;;;;;8.68;3.72;;;;;;;16.89;86.55;100659.91;5007413;28;20132;-84
2022/09/08 02:38:55;;;;;;;8.07;3.80;;;;;;;16.90;86.79;100667.97;4990103;28;20124;-84
2022/09/08 02:41:22;;;;;;;5.90;3.97;;;;;;;16.87;86.61;100673.78;4988916;28;20129;-84
2022/09/08 02:43:48;;;;;;;10.75;4.00;;;;;;;16.83;86.94;100669.59;4990226;28;20128;-84
2022/09/08 02:46:14;;;;;;;5.15;3.30;;;;;;;16.80;86.83;100665.31;5004860;28;20129;-84
2022/09/08 02:48:40;;;;;;;8.60;3.75;;;;;;;16.86;86.44;100663.81;5004084;28;20033;-84
2022/09/08 02:51:08;;;;;;;7.10;3.20;;;;;;;16.86;86.03;100676.69;4989337;28;20065;-84
2022/09/08 02:53:34;;;;;;;9.48;3.63;;;;;;;16.80;86.35;100667.19;5010910;28;20480;-84
2022/09/08 02:56:01;;;;;;;7.20;3.40;;;;;;;16.78;86.47;100672.81;5012179;28;20499;-84
2022/09/08 02:58:27;;;;;;;4.90;3.70;;;;;;;16.79;87.13;100674.56;5013306;28;20029;-84
2022/09/08 03:00:52;;;;;;;6.95;3.63;;;;;;;16.76;87.09;100671.25;5011967;28;20545;-84
2022/09/08 03:03:18;;;;;;;8.35;3.85;;;;;;;16.73;87.07;100677.06;5008303;28;20033;-84
2022/09/08 03:05:44;;;;;;;7.10;3.60;;;;;;;16.73;87.03;100672.44;4999313;28;20125;-84
2022/09/08 03:08:09;;;;;;;8.50;3.78;;;;;;;16.71;87.11;100671.69;4991144;28;20038;-85
2022/09/08 03:10:35;;;;;;;9.25;3.78;;;;;;;16.71;86.72;100679.06;5006603;28;20034;-84
2022/09/08 03:13:02;;;;;;;7.05;3.78;;;;;;;16.72;87.05;100675.34;4990454;28;20030;-84
2022/09/08 03:15:29;;;;;;;8.52;4.18;;;;;;;16.66;87.37;100671.31;4991570;28;20038;-85
2022/09/08 03:17:55;;;;;;;9.20;4.20;;;;;;;16.64;87.20;100675.22;4989674;28;20092;-84
2022/09/08 03:20:22;;;;;;;10.68;4.13;;;;;;;16.61;87.23;100673.66;4990608;28;20436;-84
2022/09/08 03:22:48;;;;;;;10.48;4.60;;;;;;;16.60;88.07;100680.16;5008084;28;20076;-84
2022/09/08 03:25:14;;;;;;;7.20;4.18;;;;;;;16.56;87.70;100674.13;5010425;28;20101;-84
2022/09/08 03:27:39;;;;;;;8.70;4.22;;;;;;;16.54;87.52;100672.53;5007508;28;20116;-84
2022/09/08 03:30:06;;;;;;;6.90;3.88;;;;;;;16.54;87.33;100672.53;4991546;28;20026;-84
2022/09/08 03:32:34;;;;;;;8.43;3.75;;;;;;;16.59;87.52;100676.53;4990807;28;20042;-84
2022/09/08 03:35:00;;;;;;;11.27;4.05;;;;;;;16.55;87.24;100677.00;4989920;28;20045;-85
2022/09/08 03:37:25;;;;;;;10.35;3.92;;;;;;;16.55;87.11;100680.63;4990468;28;20038;-85
2022/09/08 03:39:51;;;;;;;6.53;3.97;;;;;;;16.58;87.56;100679.44;5006004;28;20431;-85
2022/09/08 03:42:17;;;;;;;9.60;3.88;;;;;;;16.58;87.13;100688.53;4990102;28;20042;-85
2022/09/08 03:44:43;;;;;;;8.15;4.05;;;;;;;16.57;87.79;100694.19;4990833;28;20053;-84
2022/09/08 03:47:09;;;;;;;8.70;3.97;;;;;;;16.57;87.50;100707.94;5004252;28;20540;-85
2022/09/08 03:49:34;;;;;;;8.85;3.45;;;;;;;16.52;88.40;100718.50;5000345;28;20457;-85
2022/09/08 03:52:01;;;;;;;11.23;3.60;;;;;;;16.43;88.20;100711.19;5006340;28;20065;-85
2022/09/08 03:57:11;;;;;;;5.90;3.40;;;;;;;16.33;87.48;100664.56;5008147;28;20372;-87
2022/09/08 03:59:37;;;;;;;6.35;3.42;;;;;;;16.32;88.38;100676.56;5008632;28;20232;-85
2022/09/08 04:02:04;;;;;;;10.65;3.78;;;;;;;16.29;88.27;100680.47;4990346;28;20030;-87
2022/09/08 04:04:30;;;;;;;5.63;3.10;;;;;;;16.23;88.39;100666.50;4996113;28;20046;-85
2022/09/08 04:06:56;;;;;;;6.25;3.30;;;;;;;16.15;88.21;100661.75;5009571;28;20040;-86
2022/09/08 04:09:22;;;;;;;6.82;3.38;;;;;;;16.16;88.58;100659.88;4992228;28;20045;-86
2022/09/08 04:11:48;;;;;;;8.20;3.47;;;;;;;16.14;88.89;100660.03;5006052;28;20477;-86
2022/09/08 04:14:14;;;;;;;8.60;3.30;;;;;;;16.08;88.79;100652.38;4992208;28;20448;-86
2022/09/08 04:16:40;;;;;;;6.43;3.38;;;;;;;16.09;89.12;100656.88;5010705;28;20037;-86
2022/09/08 04:19:06;;;;;;;8.05;2.97;;;;;;;16.08;89.15;100657.88;5006685;28;20034;-86
2022/09/08 04:21:31;;;;;;;8.90;2.88;;;;;;;16.03;89.23;100662.97;5010445;28;20034;-86
2022/09/08 04:23:58;;;;;;;7.53;2.88;;;;;;;16.03;88.89;100671.19;5007627;28;20097;-86
2022/09/08 04:26:39;;;;;;;6.20;2.70;;;;;;;16.03;88.71;100671.19;4991537;28;20099;-86
2022/09/08 04:29:58;;;;;;;6.22;3.17;;;;;;;16.06;88.24;100687.38;4992852;28;20034;-86
2022/09/08 04:32:34;;;;;;;7.75;2.92;;;;;;;16.01;88.28;100679.59;5001769;28;20050;-86
2022/09/08 04:35:15;;;;;;;3.92;2.63;;;;;;;15.98;88.92;100679.00;5007688;28;20037;-86
2022/09/08 04:41:30;;;;;;;7.45;2.67;;;;;;;15.99;89.57;100689.88;5024977;28;20064;-86
2022/09/08 04:43:56;;;;;;;5.60;2.85;;;;;;;15.97;89.67;100691.00;4993171;28;20247;-86
2022/09/08 04:47:06;;;;;;;6.72;3.42;;;;;;;16.01;88.87;100695.19;4992846;28;20049;-86
2022/09/08 06:06:07;;;;;;;7.07;4.50;;;;;;;16.01;90.95;100703.41;5007652;28;20064;-87
2022/09/08 06:08:35;;;;;;;8.50;4.68;;;;;;;15.99;90.56;100698.09;5011269;28;20038;-86
2022/09/08 06:11:00;;;;;;;11.05;5.28;;;;;;;16.00;90.71;100690.72;5008129;28;20048;-86
2022/09/08 06:13:26;;;;;;;7.68;4.72;;;;;;;16.03;91.12;100702.25;5011115;28;20025;-86
2022/09/08 06:15:52;;;;;;;7.72;4.72;;;;;;;16.06;90.78;100706.56;5010201;28;20476;-87
2022/09/08 06:18:18;;;;;;;8.60;4.90;;;;;;;16.08;91.49;100705.41;5006088;28;20124;-87
2022/09/08 06:20:45;;;;;;;10.23;5.30;;;;;;;16.10;90.73;100698.91;4990020;28;20041;-86
2022/09/08 06:23:11;;;;;;;9.38;5.25;;;;;;;16.16;91.64;100703.78;5008252;28;20029;-86
2022/09/08 06:25:44;;;;;;;13.68;5.80;;;;;;;16.12;91.56;100703.22;5020866;28;20091;-86
2022/09/08 06:28:40;;;;;;;8.70;5.10;;;;;;;16.14;91.26;100701.22;5026855;28;20055;-87
2022/09/08 06:31:12;;;;;;;8.70;4.90;;;;;;;16.15;91.64;100704.81;5009632;28;20491;-87
2022/09/08 06:33:41;;;;;;;12.52;5.95;;;;;;;16.11;92.53;100695.16;4994434;28;20116;-87
2022/09/08 06:36:13;;;;;;;10.48;5.60;;;;;;;16.16;91.39;100699.16;5003558;28;20076;-87
2022/09/08 06:38:47;;;;;;;10.00;6.10;;;;;;;16.23;91.56;100707.69;4998449;28;20087;-87
2022/09/08 06:41:20;;;;;;;13.05;5.63;;;;;;;16.23;91.58;100702.19;5006901;28;20068;-87
2022/09/08 06:43:50;;;;;;;8.45;5.72;;;;;;;16.33;91.85;100709.34;4993584;28;20026;-87
2022/09/08 06:46:21;;;;;;;13.52;6.25;;;;;;;16.31;92.02;100702.28;5011729;28;20495;-88
2022/09/08 06:48:47;;;;;;;10.93;5.88;;;;;;;16.39;91.99;100712.50;4994152;28;20033;-88
2022/09/08 06:51:36;;;;;;;12.40;6.45;;;;;;;16.42;91.95;100717.72;4992263;28;20034;-88
2022/09/08 06:54:19;;;;;;;15.02;6.70;;;;;;;16.45;92.60;100722.88;4997336;28;20276;-87
2022/09/08 06:57:14;;;;;;;14.32;7.15;;;;;;;16.49;91.38;100716.06;5009400;28;20033;-88
2022/09/08 07:00:00;;;;;;;13.70;6.22;;;;;;;16.53;91.09;100718.34;4977687;28;20034;-87
2022/09/08 07:03:12;;;;;;;11.10;7.22;;;;;;;16.56;90.92;100718.06;5011648;28;20037;-88
2022/09/08 07:05:51;;;;;;;9.32;6.18;;;;;;;16.59;91.21;100714.97;4992236;28;20516;-87
2022/09/08 07:08:48;;;;;;;11.30;6.45;;;;;;;16.68;91.29;100715.94;4993548;28;20088;-88
2022/09/08 07:11:28;;;;;;;10.45;6.97;;;;;;;16.73;90.36;100710.88;4981770;28;20140;-88
2022/09/08 07:14:17;;;;;;;10.75;7.45;;;;;;;16.71;90.91;100723.03;4993877;28;20045;-88
2022/09/08 07:16:50;;;;;;;15.70;6.85;;;;;;;16.75;91.10;100725.34;5014374;28;20056;-87
2022/09/08 07:19:32;;;;;;;13.40;7.50;;;;;;;16.80;90.69;100723.00;5008847;28;20045;-87
2022/09/08 07:22:28;;;;;;;14.07;7.83;;;;;;;16.83;90.83;100719.97;5010531;28;20038;-87
2022/09/08 07:25:02;;;;;;;10.32;7.50;;;;;;;16.85;90.44;100714.28;4991503;28;20046;-88
2022/09/08 07:27:28;;;;;;;12.07;7.45;;;;;;;16.87;90.69;100723.22;5011549;28;20119;-88
2022/09/08 07:29:59;;;;;;;11.50;7.45;;;;;;;16.84;90.25;100718.06;5011872;28;20184;-88
2022/09/08 07:32:31;;;;;;;14.30;8.00;;;;;;;16.89;89.58;100715.72;5009135;28;20506;-88
2022/09/08 07:35:01;;;;;;;14.85;7.35;;;;;;;16.98;89.85;100723.03;5014706;28;20389;-87
2022/09/08 07:37:38;;;;;;;13.18;7.28;;;;;;;16.97;88.62;100726.81;5006964;28;20493;-88
2022/09/08 07:40:16;;;;;;;15.85;7.35;;;;;;;17.12;89.44;100715.28;5027672;28;20045;-88
2022/09/08 07:42:55;;;;;;;15.85;8.77;;;;;;;17.20;89.08;100720.81;5006727;28;20048;-88
2022/09/08 07:45:33;;;;;;;15.70;8.90;;;;;;;17.22;88.89;100711.41;4996409;28;20033;-88
2022/09/08 07:48:36;;;;;;;13.55;7.32;;;;;;;17.36;88.56;100714.63;5025052;28;20041;-87
2022/09/08 07:51:12;;;;;;;13.30;8.60;;;;;;;17.49;88.75;100715.09;5017930;28;20109;-88
2022/09/08 07:53:43;;;;;;;14.35;8.55;;;;;;;17.58;87.38;100717.75;5010066;28;20052;-88
2022/09/08 07:56:21;;;;;;;9.50;7.83;;;;;;;17.52;86.46;100714.75;5010567;28;20029;-88
2022/09/08 07:59:05;;;;;;;14.68;7.93;;;;;;;17.65;86.82;100723.47;5009665;28;20068;-87
2022/09/08 08:01:49;;;;;;;14.00;8.40;;;;;;;17.82;88.29;100721.75;5025091;28;20117;-87
2022/09/08 08:04:50;;;;;;;18.05;8.00;;;;;;;17.83;87.57;100726.22;5008303;28;20029;-88
2022/09/08 08:07:34;;;;;;;11.02;7.45;;;;;;;17.89;86.02;100727.44;4984742;28;20041;-87
2022/09/08 08:10:21;;;;;;;11.77;7.80;;;;;;;18.01;85.21;100729.78;4992751;28;20037;-87
2022/09/08 08:12:56;;;;;;;9.82;6.95;;;;;;;18.02;85.82;100734.25;5017429;28;20071;-87
2022/09/08 08:15:49;;;;;;;13.20;7.53;;;;;;;18.07;85.11;100729.13;5007736;28;20069;-88
2022/09/08 08:18:30;;;;;;;;;;;;;;;18.09;83.33;100737.22;5002568;28;20505;-88
2022/09/08 08:21:08;;;;;;;8.35;6.35;;;;;;;17.94;83.67;100728.69;4991588;28;19945;-86
2022/09/08 08:23:50;;;;;;;9.98;7.00;;;;;;;17.85;83.94;100737.91;5009999;28;20076;-87
2022/09/08 08:26:57;;;;;;;9.52;5.50;;;;;;;17.94;82.81;100736.09;5010802;28;20041;-87
2022/09/08 08:29:43;;;;;;;11.25;6.07;;;;;;;17.87;81.67;100735.88;4976249;28;20128;-87
2022/09/08 08:32:12;;;;;;;10.65;6.43;;;;;;;17.77;82.03;100729.63;4988943;28;20045;-87
2022/09/08 08:34:47;;;;;;;9.95;6.25;;;;;;;17.81;82.29;100737.41;5006169;28;20037;-87
2022/09/08 08:37:19;;;;;;;7.95;6.53;;;;;;;17.91;82.29;100733.69;5008485;28;20038;-87
2022/09/08 08:39:48;;;;;;;14.15;6.68;;;;;;;18.09;82.56;100734.44;4993756;28;20033;-87
2022/09/08 08:42:48;;;;;;;7.20;5.90;;;;;;;18.24;82.01;100724.59;5008706;28;20410;-87
2022/09/08 08:45:37;;;;;;;8.90;5.60;;;;;;;18.30;81.18;100732.19;5008650;28;20473;-87
2022/09/08 08:48:35;;;;;;;8.18;5.07;;;;;;;18.30;80.40;100732.19;5010221;28;20033;-87
2022/09/08 08:51:29;;;;;;;7.28;5.43;;;;;;;18.29;80.51;100729.59;4986029;28;20061;-86
2022/09/08 08:54:26;;;;;;;10.60;4.85;;;;;;;18.34;81.67;100736.34;5012638;28;20560;-86
2022/09/08 08:57:19;;;;;;;8.70;5.20;;;;;;;18.39;79.52;100730.34;5008777;28;20102;-87
2022/09/08 08:59:44;;;;;;;;;;;;;;;18.56;79.52;100729.38;4992403;28;20033;-87
2022/09/08 09:02:29;;;;;;;8.18;4.85;;;;;;;18.67;80.43;100728.22;4990847;28;19923;-87
2022/09/08 09:05:22;;;;;;;6.53;4.43;;;;;;;18.85;79.40;100733.66;5022863;28;20049;-87
2022/09/08 09:07:57;;;;;;;9.40;4.43;;;;;;;18.81;77.54;100733.13;5008825;28;20074;-86
2022/09/08 09:10:43;;;;;;;7.15;3.80;;;;;;;18.70;77.66;100736.19;4993677;28;20400;-86
2022/09/08 09:13:35;;;;;;;5.88;3.97;;;;;;;18.64;77.65;100733.19;4990662;28;20449;-86
2022/09/08 09:16:15;;;;;;;5.47;3.67;;;;;;;18.51;78.09;100730.88;5010103;28;20484;-86
2022/09/08 09:19:09;;;;;;;5.38;3.35;;;;;;;18.45;78.42;100731.56;5007439;28;20041;-86
2022/09/08 09:21:50;;;;;;;5.20;3.15;;;;;;;18.38;78.99;100739.63;5018205;28;20481;-86
2022/09/08 09:24:50;;;;;;;8.00;3.65;;;;;;;18.35;79.24;100731.69;4994459;28;20047;-86
2022/09/08 09:27:39;;;;;;;7.35;4.20;;;;;;;18.51;80.14;100726.28;5008606;28;20084;-86
2022/09/08 09:30:24;;;;;;;5.63;3.83;;;;;;;18.99;80.20;100729.38;5028034;28;20053;-86
2022/09/08 09:33:14;;;;;;;6.15;3.75;;;;;;;19.37;77.67;100730.66;5001005;28;20064;-86
2022/09/08 09:35:45;;;;;;;6.82;3.95;;;;;;;19.44;75.21;100728.91;5023207;28;20037;-85
2022/09/08 09:38:45;;;;;;;6.15;3.17;;;;;;;19.45;74.78;100735.31;4993270;28;20092;-86
2022/09/08 09:41:27;;;;;;;8.23;3.05;;;;;;;19.36;74.55;100731.69;5007157;28;20034;-86
2022/09/08 09:44:24;;;;;;;3.28;2.03;;;;;;;19.42;74.34;100727.38;5009763;28;20464;-85
2022/09/08 09:47:17;;;;;;;7.15;2.47;;;;;;;19.59;74.39;100729.97;5023765;28;20107;-86
2022/09/08 09:50:03;;;;;;;6.05;2.50;;;;;;;20.23;75.00;100730.06;5021333;28;20109;-86
2022/09/08 09:52:56;;;;;;;6.65;1.60;;;;;;;20.71;71.29;100721.84;5016932;28;20045;-85
2022/09/08 09:55:50;;;;;;;3.85;1.45;;;;;;;20.87;67.04;100728.13;5008999;28;20029;-85
2022/09/08 09:58:54;;;;;;;3.80;1.70;;;;;;;20.80;67.28;100726.28;4978115;28;20145;-85
2022/09/08 10:01:41;;;;;;;5.93;1.90;;;;;;;20.69;68.66;100730.28;5018567;28;20060;-85
2022/09/08 10:04:21;;;;;;;5.15;2.00;;;;;;;20.61;68.07;100728.44;5028870;28;20504;-85
2022/09/08 10:07:08;;;;;;;5.15;1.60;;;;;;;20.93;66.62;100733.97;4995039;28;20064;-86
2022/09/08 10:09:59;;;;;;;5.40;1.70;;;;;;;21.53;69.67;100724.94;5008868;28;20053;-85
2022/09/08 10:12:50;;;;;;;6.00;2.00;;;;;;;21.79;65.88;100721.78;5011964;28;20116;-86
2022/09/08 10:15:35;;;;;;;8.55;1.80;;;;;;;21.76;64.55;100727.69;4994017;28;20474;-86
2022/09/08 10:18:09;;;;;;;8.27;2.08;;;;;;;22.04;66.61;100728.78;4988768;28;20489;-85
2022/09/08 10:21:24;;;;;;;6.53;1.77;;;;;;;22.13;65.74;100729.59;4998321;28;20366;-85
2022/09/08 10:24:14;;;;;;;5.75;1.60;;;;;;;21.80;63.29;100729.91;5030139;28;20032;-85
2022/09/08 10:26:51;;;;;;;6.45;1.80;;;;;;;21.68;63.39;100728.63;5008489;28;20037;-85
2022/09/08 10:29:51;;;;;;;9.63;1.58;;;;;;;21.91;66.11;100734.13;4994147;28;20393;-85
2022/09/08 10:32:49;;;;;;;8.23;2.10;;;;;;;22.26;61.14;100731.72;5011571;28;20092;-85
2022/09/08 10:35:21;;;;;;;10.45;2.42;;;;;;;22.25;61.17;100743.88;4994583;28;20034;-86
2022/09/08 10:38:07;;;;;;;6.45;1.92;;;;;;;22.00;60.23;100732.13;5006402;28;20096;-85
2022/09/08 10:41:02;;;;;;;6.28;1.60;;;;;;;22.00;63.22;100734.91;5009687;28;20124;-85
2022/09/08 10:44:03;;;;;;;9.07;2.00;;;;;;;22.03;63.85;100729.84;5002976;28;20046;-85
2022/09/08 10:46:29;;;;;;;6.03;1.58;;;;;;;22.25;62.75;100725.31;5010512;28;20125;-85
2022/09/08 10:49:32;;;;;;;7.65;1.90;;;;;;;22.56;61.51;100725.13;4993755;28;20172;-85
2022/09/08 10:52:09;;;;;;;5.18;1.80;;;;;;;22.88;60.96;100714.66;5011924;28;20401;-85
2022/09/08 10:55:14;;;;;;;5.60;2.17;;;;;;;23.07;62.64;100711.28;5013069;28;20052;-85
2022/09/08 10:58:12;;;;;;;5.13;1.83;;;;;;;23.35;59.65;100716.06;5008220;28;20042;-84
2022/09/08 11:00:49;;;;;;;5.18;1.65;;;;;;;23.17;58.73;100719.28;5010837;28;20461;-85
2022/09/08 11:03:48;;;;;;;3.90;1.77;;;;;;;22.70;58.73;100717.84;4993180;28;20041;-85
2022/09/08 11:06:34;;;;;;;5.20;1.70;;;;;;;22.12;59.17;100717.66;5005882;28;20049;-85
2022/09/08 11:09:34;;;;;;;8.88;1.90;;;;;;;21.94;62.03;100716.28;4976541;28;20041;-85
2022/09/08 11:12:46;;;;;;;7.80;1.80;;;;;;;22.10;61.95;100721.63;5006542;28;20053;-85
2022/09/08 11:15:41;;;;;;;6.45;1.77;;;;;;;22.61;61.87;100705.13;5010194;28;20045;-85
2022/09/08 11:18:40;;;;;;;4.95;1.40;;;;;;;23.04;59.96;100711.69;4977102;28;20052;-85
2022/09/08 11:21:28;;;;;;;10.13;1.90;;;;;;;23.45;59.77;100699.06;4991575;28;20042;-85
2022/09/08 11:23:53;;;;;;;5.28;1.80;;;;;;;23.58;57.43;100704.75;5012655;28;20037;-85
2022/09/08 11:26:32;;;;;;;8.30;1.70;;;;;;;23.88;56.08;100706.34;4991248;28;20508;-85
2022/09/08 11:29:11;;;;;;;4.60;1.90;;;;;;;24.08;55.99;100700.91;4977713;28;20408;-85
2022/09/08 11:32:07;;;;;;;4.78;1.77;;;;;;;24.32;55.36;100699.56;4976568;28;20428;-85
2022/09/08 11:34:59;;;;;;;3.70;1.40;;;;;;;24.21;55.65;100704.88;4972688;28;20160;-85
2022/09/08 11:37:35;;;;;;;7.65;2.10;;;;;;;23.89;54.98;100707.19;5010019;28;20076;-85
2022/09/08 11:40:32;;;;;;;7.95;2.22;;;;;;;23.53;55.28;100701.72;4992732;28;20156;-85
2022/09/08 11:43:12;;;;;;;7.15;1.67;;;;;;;23.26;56.21;100698.66;4990988;28;20038;-85
2022/09/08 11:45:46;;;;;;;6.95;1.90;;;;;;;23.47;57.05;100699.75;4995062;28;20034;-85
2022/09/08 11:48:30;;;;;;;5.32;1.65;;;;;;;23.81;53.36;100687.88;4992472;28;20449;-85
2022/09/08 11:51:39;;;;;;;5.18;1.98;;;;;;;23.73;53.92;100688.03;5006526;28;20480;-85
2022/09/08 11:54:25;;;;;;;6.55;1.88;;;;;;;23.99;54.21;100691.03;5009692;28;20061;-85
2022/09/08 11:57:13;;;;;;;6.53;1.85;;;;;;;24.39;56.11;100686.63;5007786;28;20033;-85
2022/09/08 12:00:09;;;;;;;5.13;1.70;;;;;;;24.62;51.77;100679.84;4992479;28;20124;-85
2022/09/08 12:02:49;;;;;;;5.63;1.88;;;;;;;24.89;52.38;100678.88;5008591;28;20048;-85
2022/09/08 12:05:54;;;;;;;3.38;1.77;;;;;;;24.87;51.32;100660.69;5008782;28;20133;-85
2022/09/08 12:08:38;;;;;;;6.93;1.70;;;;;;;24.76;49.73;100670.53;4994928;28;20065;-84
2022/09/08 12:11:46;;;;;;;4.68;1.85;;;;;;;24.65;51.27;100671.97;4990033;28;20184;-85
2022/09/08 12:14:26;;;;;;;6.88;1.80;;;;;;;24.26;51.67;100663.41;4991792;28;20037;-85
2022/09/08 12:17:13;;;;;;;3.80;1.58;;;;;;;24.31;52.37;100656.16;4975659;28;20037;-86
2022/09/08 12:19:55;;;;;;;2.65;1.30;;;;;;;24.50;51.39;100656.50;4974732;28;20049;-86
2022/09/08 12:22:36;;;;;;;5.95;1.73;;;;;;;24.80;51.96;100660.66;4999193;28;20072;-85
2022/09/08 12:25:15;;;;;;;4.53;1.60;;;;;;;24.95;46.37;100654.97;5023411;28;20332;-86
2022/09/08 12:27:55;;;;;;;2.83;1.65;;;;;;;25.18;49.69;100658.25;4974273;28;20049;-86
2022/09/08 12:30:25;;;;;;;5.63;1.90;;;;;;;25.09;46.71;100640.03;4991648;28;20175;-85
2022/09/08 12:33:08;;;;;;;4.82;1.70;;;;;;;25.26;48.52;100651.59;4992354;28;20767;-86
2022/09/08 12:35:53;;;;;;;3.80;1.55;;;;;;;24.97;47.97;100663.09;5006005;28;20095;-85
2022/09/08 12:38:24;;;;;;;6.47;1.88;;;;;;;24.54;49.40;100661.44;5007894;28;20133;-85
2022/09/08 12:41:17;;;;;;;3.25;1.73;;;;;;;24.11;48.78;100655.19;5007531;28;20503;-85
2022/09/08 12:43:44;;;;;;;6.88;1.30;;;;;;;23.74;51.88;100650.88;5009214;28;20543;-85
2022/09/08 12:46:33;;;;;;;3.80;1.40;;;;;;;23.67;51.79;100654.44;5007450;28;20037;-86
2022/09/08 12:49:54;;;;;;;6.25;1.27;;;;;;;23.94;52.40;100657.41;4991982;28;20092;-85
2022/09/08 12:52:45;;;;;;;5.20;1.30;;;;;;;24.24;51.48;100644.13;4973492;28;20080;-85
2022/09/08 12:55:30;;;;;;;5.93;1.30;;;;;;;24.52;51.05;100657.97;5008316;28;20063;-85
2022/09/08 12:58:01;;;;;;;3.10;1.67;;;;;;;24.59;50.36;100655.25;4996940;28;20484;-86
2022/09/08 13:00:49;;;;;;;6.75;1.35;;;;;;;24.65;50.68;100646.06;5009131;28;20041;-85
2022/09/08 13:03:33;;;;;;;5.00;1.50;;;;;;;24.67;50.36;100644.81;5003650;28;20046;-85
2022/09/08 13:06:25;;;;;;;3.15;1.30;;;;;;;24.77;50.94;100657.47;5007796;28;20128;-86
2022/09/08 13:09:07;;;;;;;4.13;1.20;;;;;;;24.57;46.87;100647.09;4991063;28;20033;-85
2022/09/08 13:11:58;;;;;;;3.78;0.90;;;;;;;24.72;47.83;100652.53;5007980;28;20116;-86
2022/09/08 13:14:53;;;;;;;5.07;1.42;;;;;;;24.93;47.97;100644.00;4991026;28;20513;-86
2022/09/08 13:17:51;;;;;;;2.75;0.90;;;;;;;24.86;48.61;100654.28;5008553;28;20484;-85
2022/09/08 13:20:16;;;;;;;7.10;1.40;;;;;;;25.13;48.46;100643.22;5007538;28;20041;-85
2022/09/08 13:23:00;;;;;;;5.95;1.33;;;;;;;25.40;48.26;100644.13;4988205;28;20032;-85
2022/09/08 13:25:50;;;;;;;4.03;1.23;;;;;;;25.21;46.85;100653.31;5015702;28;20113;-86
2022/09/08 13:28:49;;;;;;;4.93;1.10;;;;;;;25.08;48.52;100648.56;5005465;28;20042;-86
2022/09/08 13:31:26;;;;;;;4.18;1.30;;;;;;;24.74;47.60;100655.09;4990641;28;20452;-86
2022/09/08 13:34:10;;;;;;;3.38;1.00;;;;;;;24.46;49.42;100664.38;5002710;28;20042;-86
2022/09/08 13:36:45;;;;;;;6.00;1.20;;;;;;;24.25;49.00;100664.44;5001774;28;20037;-86
2022/09/08 13:39:35;;;;;;;7.55;1.15;;;;;;;24.27;49.73;100662.31;4990499;28;20489;-86
2022/09/08 13:42:25;;;;;;;3.50;1.45;;;;;;;24.78;48.97;100667.53;4990175;28;20508;-86